Time;durP1;ratioP1;P1;durP2;ratioP2;P2;SDS_P1;SDS_P2;PMS_P1;PMS_P2;Temp;Humidity;BMP_temperature;BMP_pressure;BME280_temperature;BME280_humidity;BME280_pressure;Samples;Min_cycle;Max_cycle;Signal;HPM_P1;HPM_P2
2022/09/24 00:00:57;;;;;;;19.08;10.70;;;14.10;99.90;;;;;;4986694;28;20038;-71
2022/09/24 00:03:25;;;;;;;20.83;10.35;;;14.10;99.90;;;;;;4980008;28;20551;-71
2022/09/24 00:05:51;;;;;;;19.17;9.85;;;14.10;99.90;;;;;;4983350;28;20059;-70
2022/09/24 00:08:18;;;;;;;21.52;10.70;;;14.10;99.90;;;;;;4980644;28;20406;-71
2022/09/24 00:10:45;;;;;;;17.35;9.35;;;14.10;99.90;;;;;;4984946;28;20037;-71
2022/09/24 00:13:14;;;;;;;19.67;9.15;;;14.10;99.90;;;;;;4982224;28;20035;-72
2022/09/24 00:15:43;;;;;;;17.10;9.00;;;14.10;99.90;;;;;;4981871;28;20125;-70
2022/09/24 00:18:10;;;;;;;16.53;8.83;;;14.00;99.90;;;;;;4983488;28;20092;-69
2022/09/24 00:20:37;;;;;;;14.27;7.85;;;14.00;99.90;;;;;;4985343;28;20288;-69
2022/09/24 00:23:03;;;;;;;18.08;9.60;;;14.00;99.90;;;;;;4983431;28;20052;-71
2022/09/24 00:28:14;;;;;;;17.38;9.00;;;14.00;99.90;;;;;;4987228;28;20041;-71
2022/09/24 00:30:41;;;;;;;14.88;7.88;;;14.00;99.90;;;;;;4983383;28;20049;-69
2022/09/24 00:33:07;;;;;;;17.95;9.07;;;13.90;99.90;;;;;;4984174;28;20185;-73
2022/09/24 00:35:35;;;;;;;17.38;7.93;;;13.90;99.90;;;;;;4981851;28;20101;-71
2022/09/24 00:38:00;;;;;;;15.65;7.63;;;13.90;99.90;;;;;;4981938;28;20513;-71
2022/09/24 00:40:31;;;;;;;16.65;8.70;;;13.90;99.90;;;;;;4981204;28;20038;-71
2022/09/24 00:42:56;;;;;;;16.33;8.32;;;13.90;99.90;;;;;;4984668;28;20046;-71
2022/09/24 00:45:23;;;;;;;16.83;8.60;;;13.90;99.90;;;;;;4982954;28;20035;-70
2022/09/24 00:47:50;;;;;;;17.63;9.20;;;13.90;99.90;;;;;;4985850;28;20056;-71
2022/09/24 00:50:33;;;;;;;16.15;8.85;;;13.90;99.90;;;;;;4985045;28;20030;-72
2022/09/24 00:53:03;;;;;;;14.57;8.38;;;13.90;99.90;;;;;;4983076;28;20104;-72
2022/09/24 00:55:32;;;;;;;20.90;9.18;;;13.90;99.90;;;;;;4980767;28;20057;-69
2022/09/24 00:58:02;;;;;;;17.27;9.05;;;13.90;99.90;;;;;;4987993;28;20057;-70
2022/09/24 01:00:28;;;;;;;15.10;8.23;;;13.90;99.90;;;;;;4998193;28;20134;-71
2022/09/24 01:03:00;;;;;;;20.90;10.27;;;13.90;99.90;;;;;;4979434;28;20138;-70
2022/09/24 01:05:27;;;;;;;21.85;9.02;;;13.90;99.90;;;;;;4979987;28;20043;-70
2022/09/24 01:07:53;;;;;;;18.05;9.68;;;13.90;99.90;;;;;;4984768;28;20129;-72
2022/09/24 01:10:57;;;;;;;17.83;9.35;;;13.80;99.90;;;;;;4979862;28;20125;-69
2022/09/24 01:13:56;;;;;;;19.90;10.25;;;13.80;99.90;;;;;;4982270;28;20439;-72
2022/09/24 01:16:27;;;;;;;16.92;9.20;;;13.80;99.90;;;;;;4984886;28;20057;-71
2022/09/24 01:19:22;;;;;;;17.85;9.60;;;13.80;99.90;;;;;;4982477;28;20042;-70
2022/09/24 01:21:54;;;;;;;20.88;10.43;;;13.80;99.90;;;;;;4961902;28;20681;-72
2022/09/24 01:24:23;;;;;;;21.92;9.95;;;13.80;99.90;;;;;;4981042;28;20030;-72
2022/09/24 01:27:22;;;;;;;21.58;10.20;;;13.80;99.90;;;;;;4982176;28;20050;-70
2022/09/24 01:30:03;;;;;;;19.63;10.32;;;13.70;99.90;;;;;;4979804;28;20180;-71
2022/09/24 01:32:39;;;;;;;24.70;11.02;;;13.70;99.90;;;;;;4978620;28;20035;-70
2022/09/24 01:35:20;;;;;;;24.52;11.68;;;13.80;99.90;;;;;;4986133;28;20056;-72
2022/09/24 01:37:52;;;;;;;23.83;10.88;;;13.70;99.90;;;;;;4982335;28;20054;-71
2022/09/24 01:40:21;;;;;;;24.17;11.52;;;13.70;99.90;;;;;;4984536;28;20045;-69
2022/09/24 01:42:48;;;;;;;23.73;11.57;;;13.70;99.90;;;;;;4980510;28;20069;-71
2022/09/24 01:45:15;;;;;;;24.25;11.43;;;13.70;99.90;;;;;;4980203;28;20038;-69
2022/09/24 01:47:41;;;;;;;25.00;11.30;;;13.70;99.90;;;;;;4984954;28;20088;-70
2022/09/24 01:50:15;;;;;;;22.00;11.05;;;13.70;99.90;;;;;;4985123;28;20402;-69
2022/09/24 01:52:43;;;;;;;24.17;11.82;;;13.70;99.90;;;;;;4983075;28;20079;-72
2022/09/24 01:55:14;;;;;;;26.90;11.70;;;13.70;99.90;;;;;;4984933;28;20038;-70
2022/09/24 01:57:48;;;;;;;21.83;11.15;;;13.70;99.90;;;;;;4983539;28;20035;-71
2022/09/24 02:00:18;;;;;;;22.92;10.98;;;13.70;99.90;;;;;;4985424;28;20106;-72
2022/09/24 02:02:44;;;;;;;;;;;13.60;99.90;;;;;;4987587;28;20042;-72
2022/09/24 02:05:20;;;;;;;22.65;10.98;;;13.60;99.90;;;;;;4983752;28;19928;-71
2022/09/24 02:08:01;;;;;;;23.15;11.55;;;13.70;99.90;;;;;;5002848;28;20031;-71
2022/09/24 02:10:31;;;;;;;27.15;10.80;;;13.60;99.90;;;;;;4986727;28;20078;-71
2022/09/24 02:13:02;;;;;;;21.42;9.77;;;13.60;99.90;;;;;;4986442;28;20109;-71
2022/09/24 02:15:33;;;;;;;24.40;10.88;;;13.60;99.90;;;;;;4985020;28;20177;-71
2022/09/24 02:18:05;;;;;;;23.23;11.07;;;13.60;99.90;;;;;;4984647;28;20391;-69
2022/09/24 02:20:33;;;;;;;19.55;10.57;;;13.60;99.90;;;;;;4969688;28;20056;-71
2022/09/24 02:22:59;;;;;;;23.17;11.15;;;13.60;99.90;;;;;;4987380;28;20042;-70
2022/09/24 02:25:36;;;;;;;20.27;10.82;;;13.60;99.90;;;;;;4986410;28;20034;-70
2022/09/24 02:28:02;;;;;;;20.38;10.27;;;13.60;99.90;;;;;;4985580;28;20499;-71
2022/09/24 02:30:31;;;;;;;19.58;10.05;;;13.60;99.90;;;;;;4988174;28;20118;-71
2022/09/24 02:32:57;;;;;;;16.88;9.30;;;13.60;99.90;;;;;;5007951;28;20044;-70
2022/09/24 02:35:23;;;;;;;19.70;10.23;;;13.60;99.90;;;;;;4986260;28;20049;-70
2022/09/24 02:37:48;;;;;;;18.30;10.07;;;13.60;99.90;;;;;;4984693;28;20034;-69
2022/09/24 02:40:14;;;;;;;19.52;9.15;;;13.60;99.90;;;;;;4989185;28;20096;-70
2022/09/24 02:42:41;;;;;;;16.15;8.70;;;13.60;99.90;;;;;;4981490;28;20041;-71
2022/09/24 02:45:07;;;;;;;17.52;8.95;;;13.60;99.90;;;;;;4983870;28;20125;-71
2022/09/24 02:47:33;;;;;;;16.95;9.55;;;13.60;99.90;;;;;;4984024;28;20042;-71
2022/09/24 02:49:59;;;;;;;19.45;8.68;;;13.60;99.90;;;;;;4986576;28;20745;-69
2022/09/24 02:52:24;;;;;;;18.13;8.77;;;13.60;99.90;;;;;;4986064;28;20038;-70
2022/09/24 02:54:50;;;;;;;18.85;9.52;;;13.60;99.90;;;;;;4984212;28;20039;-71
2022/09/24 02:57:17;;;;;;;16.98;8.68;;;13.50;99.90;;;;;;4988162;28;20514;-71
2022/09/24 02:59:43;;;;;;;18.23;9.43;;;13.60;99.90;;;;;;4984517;28;20074;-71
2022/09/24 03:02:08;;;;;;;16.58;9.55;;;13.50;99.90;;;;;;4984137;28;20058;-71
2022/09/24 03:04:34;;;;;;;15.63;8.48;;;13.60;99.90;;;;;;4984759;28;20114;-71
2022/09/24 03:07:00;;;;;;;20.40;9.98;;;13.50;99.90;;;;;;4992404;28;20495;-71
2022/09/24 03:09:25;;;;;;;18.95;9.18;;;13.50;99.90;;;;;;4984776;28;20034;-70
2022/09/24 03:11:51;;;;;;;19.42;9.88;;;13.50;99.90;;;;;;4985764;28;20142;-72
2022/09/24 03:14:17;;;;;;;21.23;10.07;;;13.50;99.90;;;;;;4987340;28;20505;-69
2022/09/24 03:16:42;;;;;;;19.33;9.07;;;13.50;99.90;;;;;;4983395;28;20042;-71
2022/09/24 03:19:08;;;;;;;22.38;9.73;;;13.50;99.90;;;;;;4987477;28;20108;-70
2022/09/24 03:21:34;;;;;;;18.85;9.98;;;13.50;99.90;;;;;;4988727;28;20397;-73
2022/09/24 03:23:59;;;;;;;20.35;9.75;;;13.50;99.90;;;;;;4985426;28;20046;-69
2022/09/24 03:26:25;;;;;;;16.70;8.48;;;13.50;99.90;;;;;;5005869;28;20085;-69
2022/09/24 03:28:51;;;;;;;22.27;10.13;;;13.50;99.90;;;;;;4989441;28;20076;-70
2022/09/24 03:31:17;;;;;;;21.38;9.85;;;13.50;99.90;;;;;;4984747;28;20058;-71
2022/09/24 03:33:45;;;;;;;20.98;9.75;;;13.60;99.90;;;;;;4987254;28;20052;-73
2022/09/24 03:36:16;;;;;;;19.58;9.18;;;13.50;99.90;;;;;;4985851;28;20126;-71
2022/09/24 03:38:44;;;;;;;17.63;8.60;;;13.50;99.90;;;;;;4984294;28;20038;-71
2022/09/24 03:41:11;;;;;;;20.52;10.02;;;13.50;99.90;;;;;;4984426;28;20030;-72
2022/09/24 03:43:36;;;;;;;21.88;9.98;;;13.50;99.90;;;;;;4982519;28;20117;-71
2022/09/24 03:46:05;;;;;;;25.92;10.85;;;13.50;99.90;;;;;;4981859;28;20189;-70
2022/09/24 03:48:33;;;;;;;21.50;10.68;;;13.50;99.90;;;;;;4975014;28;20030;-71
2022/09/24 03:51:03;;;;;;;21.42;10.52;;;13.50;99.90;;;;;;4959367;28;23798;-70
2022/09/24 03:53:29;;;;;;;25.23;11.63;;;13.50;99.90;;;;;;4964405;28;20042;-70
2022/09/24 03:55:55;;;;;;;25.08;11.73;;;13.50;99.90;;;;;;4964559;28;20034;-72
2022/09/24 03:58:22;;;;;;;24.65;11.55;;;13.50;99.90;;;;;;4961744;28;20071;-71
2022/09/24 04:00:50;;;;;;;26.75;12.15;;;13.50;99.90;;;;;;4960835;28;20465;-70
2022/09/24 04:03:15;;;;;;;25.58;11.77;;;13.50;99.90;;;;;;4963830;28;20027;-70
2022/09/24 04:05:41;;;;;;;29.58;12.10;;;13.50;99.90;;;;;;4962966;28;20042;-70
2022/09/24 04:08:06;;;;;;;24.50;11.27;;;13.50;99.90;;;;;;4964567;28;20072;-71
2022/09/24 04:10:32;;;;;;;27.73;12.07;;;13.50;99.90;;;;;;4966426;28;20042;-70
2022/09/24 04:12:58;;;;;;;26.13;11.88;;;13.50;99.90;;;;;;4971321;28;20046;-71
2022/09/24 04:15:23;;;;;;;23.98;11.63;;;13.50;99.90;;;;;;4981673;28;20026;-70
2022/09/24 04:17:54;;;;;;;23.20;12.27;;;13.50;99.90;;;;;;4985766;28;20041;-70
2022/09/24 04:20:21;;;;;;;26.73;12.38;;;13.50;99.90;;;;;;4980755;28;20053;-71
2022/09/24 04:22:52;;;;;;;25.20;12.68;;;13.50;99.90;;;;;;4984693;28;20505;-71
2022/09/24 04:25:18;;;;;;;26.90;12.18;;;13.50;99.90;;;;;;4977655;28;20095;-71
2022/09/24 04:27:44;;;;;;;30.00;12.40;;;13.50;99.90;;;;;;4983938;28;20504;-71
2022/09/24 04:30:13;;;;;;;22.30;11.45;;;13.50;99.90;;;;;;4975115;28;20030;-71
2022/09/24 04:32:40;;;;;;;25.58;11.85;;;13.40;99.90;;;;;;4983144;28;20042;-70
2022/09/24 04:35:07;;;;;;;24.70;12.68;;;13.40;99.90;;;;;;4984502;28;20029;-70
2022/09/24 04:37:32;;;;;;;26.10;12.25;;;13.40;99.90;;;;;;4982497;28;20043;-71
2022/09/24 04:39:58;;;;;;;27.45;13.13;;;13.40;99.90;;;;;;4981722;28;20046;-72
2022/09/24 04:42:24;;;;;;;27.17;12.77;;;13.40;99.90;;;;;;4982854;28;20038;-70
2022/09/24 04:44:49;;;;;;;25.35;12.32;;;13.40;99.90;;;;;;4984996;28;20069;-71
2022/09/24 04:47:16;;;;;;;26.60;12.25;;;13.40;99.90;;;;;;4981957;28;20031;-70
2022/09/24 04:49:43;;;;;;;24.58;12.45;;;13.40;99.90;;;;;;4979141;28;20030;-71
2022/09/24 04:52:09;;;;;;;23.25;11.63;;;13.40;99.90;;;;;;4978209;28;20045;-70
2022/09/24 04:54:35;;;;;;;24.50;11.77;;;13.30;99.90;;;;;;4978917;28;20030;-71
2022/09/24 04:57:00;;;;;;;25.10;12.00;;;13.40;99.90;;;;;;4981716;28;20042;-73
2022/09/24 04:59:26;;;;;;;26.08;12.55;;;13.30;99.90;;;;;;4977058;28;20042;-72
2022/09/24 05:01:53;;;;;;;24.08;12.07;;;13.30;99.90;;;;;;4977802;28;20390;-70
2022/09/24 05:04:18;;;;;;;25.23;12.35;;;13.30;99.90;;;;;;4981486;28;20043;-70
2022/09/24 05:06:44;;;;;;;24.77;11.57;;;13.30;99.90;;;;;;4981106;28;20030;-71
2022/09/24 05:09:09;;;;;;;24.73;12.00;;;13.30;99.90;;;;;;4979779;28;20049;-71
2022/09/24 05:11:35;;;;;;;28.52;12.13;;;13.30;99.90;;;;;;4981083;28;20030;-70
2022/09/24 05:14:00;;;;;;;23.15;11.88;;;13.30;99.90;;;;;;4982660;28;20589;-71
2022/09/24 05:16:26;;;;;;;31.25;12.10;;;13.30;99.90;;;;;;4984098;28;20035;-71
2022/09/24 05:18:52;;;;;;;25.63;11.75;;;13.30;99.90;;;;;;4977916;28;20042;-73
2022/09/24 05:21:17;;;;;;;25.98;10.82;;;13.40;99.90;;;;;;4984021;28;20061;-70
2022/09/24 05:23:43;;;;;;;30.65;12.40;;;13.30;99.90;;;;;;4987089;28;20117;-71
2022/09/24 05:28:53;;;;;;;29.00;12.00;;;13.30;99.90;;;;;;4978091;28;20041;-71
2022/09/24 05:31:19;;;;;;;34.75;13.23;;;13.30;99.90;;;;;;4976319;28;20062;-71
2022/09/24 05:33:45;;;;;;;24.75;11.57;;;13.40;99.90;;;;;;4980213;28;20050;-71
2022/09/24 05:36:10;;;;;;;30.65;12.63;;;13.30;99.90;;;;;;4979730;28;20140;-72
2022/09/24 05:38:36;;;;;;;30.73;12.82;;;13.30;99.90;;;;;;4979120;28;20042;-70
2022/09/24 05:41:02;;;;;;;24.15;11.15;;;13.30;99.90;;;;;;4981911;28;20121;-71
2022/09/24 05:43:28;;;;;;;30.45;12.55;;;13.30;99.90;;;;;;4984250;28;20085;-70
2022/09/24 05:45:53;;;;;;;24.42;11.35;;;13.30;99.90;;;;;;4981293;28;20030;-71
2022/09/24 05:48:20;;;;;;;33.00;13.50;;;13.30;99.90;;;;;;4982192;28;20121;-70
2022/09/24 05:50:46;;;;;;;26.83;12.57;;;13.30;99.90;;;;;;4983712;28;20026;-71
2022/09/24 05:53:11;;;;;;;31.42;13.70;;;13.30;99.90;;;;;;4981855;28;20166;-70
2022/09/24 05:55:37;;;;;;;34.70;13.30;;;13.30;99.90;;;;;;4977672;28;20031;-70
2022/09/24 05:58:09;;;;;;;28.27;12.63;;;13.30;99.90;;;;;;4980129;28;20086;-70
2022/09/24 06:00:35;;;;;;;30.20;11.43;;;13.30;99.90;;;;;;4990556;28;20030;-71
2022/09/24 06:03:08;;;;;;;27.60;12.13;;;13.30;99.90;;;;;;4980095;28;20038;-70
2022/09/24 06:05:34;;;;;;;27.48;12.30;;;13.30;99.90;;;;;;4981048;28;20642;-72
2022/09/24 06:08:01;;;;;;;29.17;12.48;;;13.40;99.90;;;;;;4980849;28;20135;-70
2022/09/24 06:10:27;;;;;;;29.38;12.38;;;13.40;99.90;;;;;;4976418;28;20058;-70
2022/09/24 06:12:52;;;;;;;31.33;13.75;;;13.30;99.90;;;;;;4980706;28;20445;-70
2022/09/24 06:15:19;;;;;;;27.98;12.27;;;13.40;99.90;;;;;;4978838;28;20041;-71
2022/09/24 06:17:45;;;;;;;27.13;11.50;;;13.40;99.90;;;;;;4979010;28;20121;-72
2022/09/24 06:20:10;;;;;;;24.55;11.82;;;13.40;99.90;;;;;;4982476;28;20371;-71
2022/09/24 06:22:36;;;;;;;35.00;13.20;;;13.40;99.90;;;;;;4978086;28;20117;-71
2022/09/24 06:25:02;;;;;;;28.42;12.52;;;13.40;99.90;;;;;;4978546;28;20058;-71
2022/09/24 06:27:27;;;;;;;30.30;12.63;;;13.40;99.90;;;;;;4965848;28;20110;-71
2022/09/24 06:29:53;;;;;;;27.23;11.95;;;13.40;99.90;;;;;;4960015;28;20590;-70
2022/09/24 06:32:18;;;;;;;23.13;10.88;;;13.40;99.90;;;;;;4960095;28;20054;-71
2022/09/24 06:34:44;;;;;;;26.95;11.43;;;13.40;99.90;;;;;;4958381;28;20036;-70
2022/09/24 06:37:10;;;;;;;25.42;11.38;;;13.40;99.90;;;;;;4966675;28;20038;-72
2022/09/24 06:39:35;;;;;;;24.80;11.20;;;13.50;99.90;;;;;;4981423;28;20046;-71
2022/09/24 06:42:01;;;;;;;23.58;10.73;;;13.50;99.90;;;;;;4976758;28;20050;-71
2022/09/24 06:44:27;;;;;;;22.92;10.68;;;13.50;99.90;;;;;;4983328;28;20060;-71
2022/09/24 06:46:52;;;;;;;27.42;11.70;;;13.50;99.90;;;;;;4980963;28;20156;-71
2022/09/24 06:49:18;;;;;;;25.27;10.77;;;13.50;99.90;;;;;;4984539;28;20031;-71
2022/09/24 06:51:44;;;;;;;23.75;10.68;;;13.50;99.90;;;;;;4986719;28;20486;-71
2022/09/24 06:54:10;;;;;;;20.23;9.95;;;13.50;99.90;;;;;;4983437;28;20397;-71
2022/09/24 06:56:35;;;;;;;21.50;10.07;;;13.50;99.90;;;;;;5007031;28;20014;-71
2022/09/24 06:59:01;;;;;;;22.88;9.45;;;13.50;99.90;;;;;;4984371;28;20044;-71
2022/09/24 07:01:26;;;;;;;21.88;9.68;;;13.50;99.90;;;;;;4980737;28;20142;-70
2022/09/24 07:03:52;;;;;;;23.90;10.15;;;13.50;99.90;;;;;;4984312;28;20026;-72
2022/09/24 07:06:18;;;;;;;25.25;10.95;;;13.60;99.90;;;;;;4980489;28;20154;-71
2022/09/24 07:08:43;;;;;;;22.42;10.50;;;13.60;99.90;;;;;;4983547;28;21216;-72
2022/09/24 07:11:09;;;;;;;23.40;9.75;;;13.60;99.90;;;;;;4984744;28;20057;-71
2022/09/24 07:13:34;;;;;;;24.38;10.50;;;13.60;99.90;;;;;;4979042;28;20058;-71
2022/09/24 07:16:00;;;;;;;20.42;9.55;;;13.70;99.90;;;;;;4982069;28;20367;-71
2022/09/24 07:18:26;;;;;;;25.17;10.52;;;13.70;99.90;;;;;;4979102;28;20156;-71
2022/09/24 07:20:53;;;;;;;19.73;9.30;;;13.70;99.90;;;;;;4977891;28;20129;-71
2022/09/24 07:23:19;;;;;;;19.40;8.88;;;13.70;99.90;;;;;;4984421;28;20066;-71
2022/09/24 07:25:44;;;;;;;21.88;10.25;;;13.70;99.90;;;;;;4981088;28;20550;-72
2022/09/24 07:28:13;;;;;;;21.00;10.27;;;13.70;99.90;;;;;;4981285;28;20482;-71
2022/09/24 07:30:39;;;;;;;22.67;9.65;;;13.70;99.90;;;;;;4978428;28;20045;-70
2022/09/24 07:33:08;;;;;;;20.75;9.40;;;13.70;99.90;;;;;;4995572;28;20578;-74
2022/09/24 07:35:37;;;;;;;19.02;8.95;;;13.70;99.90;;;;;;4980609;28;20130;-70
2022/09/24 07:38:10;;;;;;;23.73;9.90;;;13.80;99.90;;;;;;4981156;28;20030;-71
2022/09/24 07:40:36;;;;;;;23.92;9.52;;;13.80;99.90;;;;;;5000970;28;20086;-70
2022/09/24 07:43:02;;;;;;;22.27;8.30;;;13.70;99.90;;;;;;4982833;28;20169;-71
2022/09/24 07:45:29;;;;;;;18.00;8.70;;;13.70;99.90;;;;;;4988012;28;20441;-69
2022/09/24 07:47:59;;;;;;;20.52;8.57;;;13.70;99.90;;;;;;4984397;28;20081;-71
2022/09/24 07:50:26;;;;;;;22.02;9.00;;;13.70;99.90;;;;;;4984810;28;20056;-71
2022/09/24 07:52:52;;;;;;;17.30;8.02;;;13.80;99.90;;;;;;4981079;28;20046;-71
2022/09/24 07:55:17;;;;;;;18.65;9.15;;;13.80;99.90;;;;;;4984078;28;20605;-71
2022/09/24 07:57:50;;;;;;;19.83;8.35;;;13.80;99.90;;;;;;4983681;28;20030;-69
2022/09/24 08:00:17;;;;;;;16.90;8.55;;;13.80;99.90;;;;;;4982786;28;20450;-70
2022/09/24 08:02:44;;;;;;;18.83;8.48;;;13.90;99.90;;;;;;4982971;28;20128;-72
2022/09/24 08:05:10;;;;;;;20.30;8.63;;;13.90;99.90;;;;;;4983970;28;20508;-69
2022/09/24 08:07:35;;;;;;;14.82;7.18;;;13.90;99.90;;;;;;4978873;28;20117;-71
2022/09/24 08:10:01;;;;;;;18.92;7.40;;;14.00;99.90;;;;;;4981160;28;20042;-70
2022/09/24 08:12:27;;;;;;;13.90;6.30;;;14.00;99.90;;;;;;4982265;28;20149;-70
2022/09/24 08:14:53;;;;;;;12.98;6.53;;;14.00;99.90;;;;;;4981365;28;20537;-69
2022/09/24 08:17:19;;;;;;;11.38;5.72;;;14.00;99.90;;;;;;4978124;28;20047;-71
2022/09/24 08:19:45;;;;;;;12.20;5.50;;;14.00;99.90;;;;;;4983178;28;20031;-71
2022/09/24 08:22:13;;;;;;;13.38;5.05;;;14.00;99.90;;;;;;4979294;28;20118;-70
2022/09/24 08:24:39;;;;;;;10.63;4.93;;;13.90;99.90;;;;;;4981875;28;20039;-70
2022/09/24 08:27:05;;;;;;;10.80;5.05;;;14.00;99.90;;;;;;5002023;28;20034;-72
2022/09/24 08:29:31;;;;;;;10.30;4.90;;;14.00;99.90;;;;;;4982605;28;21155;-71
2022/09/24 08:31:56;;;;;;;14.45;4.82;;;14.00;99.90;;;;;;4982374;28;20334;-70
2022/09/24 08:34:22;;;;;;;12.23;4.25;;;14.00;99.90;;;;;;4985535;28;20038;-71
2022/09/24 08:36:49;;;;;;;11.55;5.35;;;14.00;99.90;;;;;;4986401;28;20057;-72
2022/09/24 08:39:14;;;;;;;12.77;4.63;;;14.00;99.90;;;;;;4983888;28;20062;-72
2022/09/24 08:41:48;;;;;;;10.45;4.68;;;14.10;99.90;;;;;;4986764;28;20065;-69
2022/09/24 08:47:38;;;;;;;12.88;5.55;;;14.20;99.90;;;;;;4985210;28;20493;-70
2022/09/24 08:50:08;;;;;;;11.88;4.47;;;14.20;99.90;;;;;;5000310;28;20434;-72
2022/09/24 08:52:55;;;;;;;10.00;4.22;;;14.20;99.90;;;;;;4982986;28;20038;-70
2022/09/24 08:55:34;;;;;;;11.10;4.63;;;14.10;99.90;;;;;;4983098;28;20045;-70
2022/09/24 08:58:27;;;;;;;7.65;4.07;;;14.10;99.90;;;;;;4983162;28;20053;-69
2022/09/24 09:00:56;;;;;;;10.77;4.43;;;14.00;99.90;;;;;;4983162;28;20121;-70
2022/09/24 09:03:36;;;;;;;12.15;4.47;;;14.10;99.90;;;;;;4980813;28;20460;-71
2022/09/24 09:06:24;;;;;;;8.40;3.95;;;14.00;99.90;;;;;;4982588;28;20042;-73
2022/09/24 09:09:10;;;;;;;9.60;4.80;;;14.10;99.90;;;;;;4985428;28;20036;-70
2022/09/24 09:11:38;;;;;;;12.02;4.18;;;14.10;99.90;;;;;;4985780;28;20034;-69
2022/09/24 09:14:13;;;;;;;7.80;3.35;;;14.10;99.90;;;;;;4986658;28;20042;-69
2022/09/24 09:16:54;;;;;;;7.20;3.33;;;14.10;99.90;;;;;;4974188;28;20050;-69
2022/09/24 09:19:26;;;;;;;12.57;3.78;;;14.10;99.90;;;;;;4964184;28;20054;-71
2022/09/24 09:21:59;;;;;;;4.40;1.80;;;14.10;99.90;;;;;;4970391;28;20153;-71
2022/09/24 09:24:35;;;;;;;4.85;1.85;;;14.10;99.90;;;;;;4963470;28;20118;-71
2022/09/24 09:27:01;;;;;;;4.38;1.50;;;14.10;99.90;;;;;;4962787;28;20171;-71
2022/09/24 09:29:27;;;;;;;6.60;1.75;;;14.10;99.90;;;;;;4968913;28;20043;-70
2022/09/24 09:32:02;;;;;;;4.10;1.00;;;14.10;99.90;;;;;;4981169;28;20560;-70
2022/09/24 09:34:36;;;;;;;3.63;1.10;;;14.10;99.90;;;;;;4979230;28;20309;-71
2022/09/24 09:37:02;;;;;;;3.30;0.88;;;14.00;99.90;;;;;;4983772;28;20034;-70
2022/09/24 09:39:37;;;;;;;4.15;0.70;;;14.00;99.90;;;;;;4980604;28;20095;-71
2022/09/24 09:42:08;;;;;;;3.70;1.00;;;14.00;99.90;;;;;;4981216;28;20030;-70
2022/09/24 09:44:40;;;;;;;;;;;14.10;99.90;;;;;;4974747;28;20085;-71
2022/09/24 09:47:23;;;;;;;2.80;0.98;;;14.00;99.90;;;;;;4976628;28;19925;-71
2022/09/24 09:49:52;;;;;;;3.35;0.80;;;14.00;99.90;;;;;;4972544;28;20494;-70
2022/09/24 09:52:23;;;;;;;8.82;1.92;;;14.10;99.90;;;;;;4979306;28;20054;-71
2022/09/24 09:54:49;;;;;;;2.20;0.68;;;14.10;99.90;;;;;;4978680;28;20035;-71
2022/09/24 09:57:20;;;;;;;4.75;0.93;;;14.10;99.90;;;;;;4977512;28;20065;-71
2022/09/24 09:59:51;;;;;;;5.60;1.15;;;14.10;99.90;;;;;;4979882;28;20077;-72
2022/09/24 10:02:26;;;;;;;4.57;0.85;;;14.10;99.90;;;;;;4982131;28;20030;-71
2022/09/24 10:04:56;;;;;;;2.10;0.55;;;14.10;99.90;;;;;;4983467;28;20037;-70
2022/09/24 10:07:22;;;;;;;2.80;0.80;;;14.10;99.90;;;;;;4979446;28;20026;-70
2022/09/24 10:09:59;;;;;;;4.95;0.60;;;14.10;99.90;;;;;;4976668;28;20042;-71
2022/09/24 10:12:25;;;;;;;4.10;0.63;;;14.10;99.90;;;;;;4979013;28;20037;-72
2022/09/24 10:15:02;;;;;;;2.90;0.80;;;14.10;99.90;;;;;;4984321;28;20042;-71
2022/09/24 10:17:37;;;;;;;5.65;1.17;;;14.10;99.90;;;;;;4984533;28;20027;-72
2022/09/24 10:20:28;;;;;;;4.32;0.70;;;14.10;99.90;;;;;;4984319;28;20093;-72
2022/09/24 10:23:03;;;;;;;8.90;1.42;;;14.00;99.90;;;;;;4981707;28;20081;-71
2022/09/24 10:25:31;;;;;;;5.78;1.30;;;14.00;99.90;;;;;;4984107;28;20026;-70
2022/09/24 10:30:55;;;;;;;5.47;1.20;;;14.00;99.90;;;;;;4984070;28;20391;-71
2022/09/24 10:33:21;;;;;;;5.38;1.23;;;14.00;99.90;;;;;;4982432;28;20042;-70
2022/09/24 10:35:47;;;;;;;4.93;0.75;;;14.00;99.90;;;;;;4981969;28;20065;-70
2022/09/24 10:38:18;;;;;;;3.40;0.60;;;14.00;99.90;;;;;;4981091;28;20070;-71
2022/09/24 10:40:45;;;;;;;5.55;1.33;;;14.10;99.90;;;;;;4982125;28;20096;-70
2022/09/24 10:43:17;;;;;;;3.90;0.90;;;14.10;99.90;;;;;;4982020;28;20142;-72
2022/09/24 10:45:50;;;;;;;5.13;0.80;;;14.00;99.90;;;;;;4978973;28;20078;-73
2022/09/24 10:48:25;;;;;;;3.45;0.85;;;14.00;99.90;;;;;;4982498;28;20038;-71
2022/09/24 10:51:02;;;;;;;2.88;0.50;;;14.10;99.90;;;;;;4984080;28;20100;-71
2022/09/24 10:53:46;;;;;;;3.80;0.80;;;14.00;99.90;;;;;;4985844;28;20061;-71
2022/09/24 10:56:40;;;;;;;4.22;1.05;;;14.00;99.90;;;;;;4981571;28;20089;-73
2022/09/24 10:59:24;;;;;;;6.45;0.70;;;14.00;99.90;;;;;;4982872;28;20034;-72
2022/09/24 11:02:09;;;;;;;6.70;0.70;;;14.00;99.90;;;;;;4983217;28;20027;-71
2022/09/24 11:04:55;;;;;;;2.90;0.80;;;14.00;99.90;;;;;;4983186;28;20823;-71
2022/09/24 11:07:35;;;;;;;8.77;1.15;;;14.00;99.90;;;;;;4984235;28;20107;-70
2022/09/24 11:10:09;;;;;;;3.72;0.90;;;14.00;99.90;;;;;;5000283;28;20046;-72
2022/09/24 11:12:55;;;;;;;4.05;0.75;;;14.00;99.90;;;;;;4980758;28;20804;-71
2022/09/24 11:15:33;;;;;;;4.93;1.02;;;14.00;99.90;;;;;;4980492;28;20047;-72
2022/09/24 11:18:19;;;;;;;4.80;0.73;;;14.10;99.90;;;;;;4999697;28;20046;-71
2022/09/24 11:21:02;;;;;;;6.28;0.80;;;14.10;99.90;;;;;;4980440;28;20142;-72
2022/09/24 11:23:38;;;;;;;6.18;1.15;;;14.10;99.90;;;;;;4982287;28;20038;-71
2022/09/24 11:26:32;;;;;;;14.32;1.52;;;14.20;99.90;;;;;;4979387;28;20499;-71
2022/09/24 11:29:17;;;;;;;5.78;0.50;;;14.20;99.90;;;;;;4981839;28;20036;-71
2022/09/24 11:31:46;;;;;;;3.42;0.70;;;14.20;99.90;;;;;;4968155;28;20053;-71
2022/09/24 11:34:53;;;;;;;6.68;1.00;;;14.30;99.90;;;;;;4962212;28;20035;-71
2022/09/24 11:37:47;;;;;;;10.23;0.70;;;14.30;99.90;;;;;;4972550;28;20037;-71
2022/09/24 11:40:31;;;;;;;4.53;1.00;;;14.30;99.90;;;;;;4979728;28;20050;-72
2022/09/24 11:43:14;;;;;;;10.65;1.83;;;14.30;99.90;;;;;;4985057;28;20022;-70
2022/09/24 11:45:50;;;;;;;10.68;1.08;;;14.30;99.90;;;;;;4981554;28;20081;-71
2022/09/24 11:48:33;;;;;;;4.50;1.05;;;14.30;99.90;;;;;;4982220;28;20091;-71
2022/09/24 11:51:32;;;;;;;8.05;1.02;;;14.30;99.90;;;;;;4984991;28;20037;-71
2022/09/24 11:54:08;;;;;;;4.90;0.93;;;14.40;99.90;;;;;;4967770;28;20043;-71
2022/09/24 11:56:43;;;;;;;10.02;1.23;;;14.30;99.90;;;;;;4985608;28;20530;-70
2022/09/24 11:59:23;;;;;;;9.43;1.30;;;14.40;99.90;;;;;;4987476;28;20054;-72
2022/09/24 12:01:53;;;;;;;;;;;14.40;99.90;;;;;;4983225;28;20518;-72
2022/09/24 12:04:28;;;;;;;12.38;0.98;;;14.40;99.90;;;;;;4979469;28;20366;-71
2022/09/24 12:07:01;;;;;;;5.03;1.60;;;14.40;99.90;;;;;;4980981;28;20038;-71
2022/09/24 12:09:40;;;;;;;7.55;1.05;;;14.40;99.90;;;;;;4980339;28;20402;-71
2022/09/24 12:12:21;;;;;;;4.85;0.70;;;14.40;99.90;;;;;;4980522;28;20478;-71
2022/09/24 12:14:58;;;;;;;5.50;0.80;;;14.50;99.90;;;;;;4981880;28;20104;-70
2022/09/24 12:17:38;;;;;;;11.70;1.20;;;14.50;99.90;;;;;;4979797;28;20034;-71
2022/09/24 12:20:29;;;;;;;7.88;0.77;;;14.60;99.90;;;;;;4982779;28;20049;-71
2022/09/24 12:23:11;;;;;;;5.90;0.95;;;14.60;99.90;;;;;;4984594;28;20490;-70
2022/09/24 12:25:43;;;;;;;5.88;1.08;;;14.60;99.90;;;;;;4960793;28;20038;-72
2022/09/24 12:28:12;;;;;;;13.10;0.93;;;14.60;99.90;;;;;;4976319;28;20113;-71
2022/09/24 12:33:40;;;;;;;6.10;1.15;;;14.60;99.90;;;;;;4978204;28;20444;-71
2022/09/24 12:36:16;;;;;;;8.73;1.20;;;14.60;99.90;;;;;;4979556;28;20153;-72
2022/09/24 12:38:48;;;;;;;4.40;0.80;;;14.60;99.90;;;;;;4979867;28;20447;-70
2022/09/24 12:41:30;;;;;;;7.82;0.82;;;14.60;99.90;;;;;;4981451;28;20042;-71
2022/09/24 12:44:10;;;;;;;6.10;0.90;;;14.60;99.90;;;;;;4979425;28;20500;-71
2022/09/24 12:46:41;;;;;;;7.33;0.73;;;14.60;99.90;;;;;;4980262;28;20038;-71
2022/09/24 12:49:21;;;;;;;6.35;0.57;;;14.60;99.90;;;;;;4984882;28;20289;-69
2022/09/24 12:51:47;;;;;;;5.65;0.70;;;14.60;99.90;;;;;;4963110;28;20387;-70
2022/09/24 12:54:31;;;;;;;7.78;1.67;;;14.60;99.90;;;;;;4962823;28;20035;-71
2022/09/24 12:57:38;;;;;;;7.13;0.98;;;14.50;99.90;;;;;;4963522;28;20039;-70
2022/09/24 13:00:33;;;;;;;7.28;1.33;;;14.50;99.90;;;;;;4941583;28;20050;-71
2022/09/24 13:03:01;;;;;;;3.83;0.60;;;14.60;99.90;;;;;;4966578;28;20784;-72
2022/09/24 13:05:33;;;;;;;8.30;1.17;;;14.60;99.90;;;;;;4962113;28;20085;-71
2022/09/24 13:08:06;;;;;;;5.82;1.20;;;14.60;99.90;;;;;;4975869;28;22932;-71